createdAt,value
2018-11-28T00:00:59.584Z,11.70
2018-11-28T00:03:30.126Z,11.60
2018-11-28T00:06:00.559Z,11.60
2018-11-28T00:08:30.865Z,11.60
2018-11-28T00:11:00.901Z,11.60
2018-11-28T00:13:30.996Z,11.60
2018-11-28T00:16:01.096Z,11.60
2018-11-28T00:18:31.302Z,11.60
2018-11-28T00:21:01.334Z,11.60
2018-11-28T00:23:31.297Z,11.60
2018-11-28T00:26:02.296Z,11.50
2018-11-28T00:28:32.681Z,11.50
2018-11-28T00:31:03.176Z,11.60
2018-11-28T00:33:33.717Z,11.60
2018-11-28T00:36:03.875Z,11.60
2018-11-28T00:38:34.005Z,11.60
2018-11-28T00:41:04.021Z,11.60
2018-11-28T00:43:34.056Z,11.60
2018-11-28T00:46:04.204Z,11.60
2018-11-28T00:48:34.639Z,11.60
2018-11-28T00:51:05.008Z,11.60
2018-11-28T00:53:35.175Z,11.60
2018-11-28T00:56:05.692Z,11.60
2018-11-28T00:58:35.903Z,11.60
2018-11-28T01:01:06.235Z,11.60
2018-11-28T01:03:36.243Z,11.60
2018-11-28T01:06:06.197Z,11.50
2018-11-28T01:08:36.499Z,11.50
2018-11-28T01:11:07.031Z,11.50
2018-11-28T01:13:37.218Z,11.50
2018-11-28T01:16:07.801Z,11.50
2018-11-28T01:18:38.861Z,11.50
2018-11-28T01:21:09.116Z,11.50
2018-11-28T01:23:39.716Z,11.50
2018-11-28T01:26:10.989Z,11.50
2018-11-28T01:28:46.325Z,11.60
2018-11-28T01:31:11.643Z,11.60
2018-11-28T01:33:42.600Z,11.60
2018-11-28T01:36:12.622Z,11.60
2018-11-28T01:38:42.910Z,11.70
2018-11-28T01:41:13.371Z,11.70
2018-11-28T01:43:43.451Z,11.80
2018-11-28T01:46:13.501Z,11.80
2018-11-28T01:48:43.910Z,11.80
2018-11-28T01:51:13.979Z,11.90
2018-11-28T01:53:44.209Z,11.90
2018-11-28T01:56:14.380Z,11.90
2018-11-28T01:58:44.802Z,11.90
2018-11-28T02:01:14.798Z,11.90
2018-11-28T02:03:44.782Z,11.90
2018-11-28T02:06:14.848Z,11.90
2018-11-28T02:08:44.762Z,11.90
2018-11-28T02:11:15.042Z,11.90
2018-11-28T02:13:45.228Z,11.90
2018-11-28T02:16:15.309Z,11.90
2018-11-28T02:18:45.578Z,11.90
2018-11-28T02:21:15.612Z,12.00
2018-11-28T02:23:46.141Z,12.00
2018-11-28T02:26:16.355Z,12.00
2018-11-28T02:28:46.702Z,12.10
2018-11-28T02:31:16.891Z,12.10
2018-11-28T02:33:47.446Z,12.10
2018-11-28T02:36:17.575Z,12.10
2018-11-28T02:38:47.745Z,12.10
2018-11-28T02:41:18.120Z,12.10
2018-11-28T02:43:48.308Z,12.10
2018-11-28T02:46:35.949Z,12.10
2018-11-28T02:49:05.867Z,12.00
2018-11-28T02:51:35.876Z,12.00
2018-11-28T02:54:06.405Z,12.00
2018-11-28T02:56:36.528Z,12.00
2018-11-28T02:59:06.756Z,12.00
2018-11-28T03:01:36.728Z,12.00
2018-11-28T03:04:06.941Z,12.00
2018-11-28T03:06:37.106Z,11.90
2018-11-28T03:09:09.499Z,11.90
2018-11-28T03:11:39.358Z,12.00
2018-11-28T03:14:09.373Z,12.00
2018-11-28T03:16:39.545Z,12.00
2018-11-28T03:19:09.742Z,12.00
2018-11-28T03:21:39.745Z,12.00
2018-11-28T03:24:10.948Z,12.00
2018-11-28T03:26:41.479Z,12.00
2018-11-28T03:29:11.732Z,11.90
2018-11-28T03:31:41.960Z,11.90
2018-11-28T03:34:12.458Z,11.90
2018-11-28T03:36:42.963Z,11.90
2018-11-28T03:39:13.190Z,11.90
2018-11-28T03:41:43.737Z,11.90
2018-11-28T03:44:13.972Z,11.90
2018-11-28T03:46:44.030Z,11.90
2018-11-28T03:49:13.934Z,11.90
2018-11-28T03:51:43.952Z,11.90
2018-11-28T03:54:14.300Z,11.90
2018-11-28T03:56:44.435Z,11.90
2018-11-28T03:59:14.615Z,11.90
2018-11-28T04:01:44.844Z,11.90
2018-11-28T04:04:15.401Z,11.90
2018-11-28T04:06:45.495Z,11.90
2018-11-28T04:09:15.533Z,11.90
2018-11-28T04:11:45.633Z,11.90
2018-11-28T04:14:15.571Z,11.90
2018-11-28T04:16:45.515Z,11.90
2018-11-28T04:19:15.811Z,11.90
2018-11-28T04:21:45.989Z,11.90
2018-11-28T04:24:16.246Z,12.00
2018-11-28T04:26:46.382Z,12.00
2018-11-28T04:29:16.761Z,12.00
2018-11-28T04:31:46.881Z,12.00
2018-11-28T04:34:17.117Z,12.00
2018-11-28T04:36:47.234Z,12.00
2018-11-28T04:39:17.276Z,12.00
2018-11-28T04:41:47.530Z,12.10
2018-11-28T04:44:17.695Z,12.10
2018-11-28T04:46:47.926Z,12.20
2018-11-28T04:49:18.047Z,12.20
2018-11-28T04:51:48.033Z,12.20
2018-11-28T04:54:18.678Z,12.20
2018-11-28T04:56:48.820Z,12.30
2018-11-28T04:59:19.108Z,12.30
2018-11-28T05:01:49.268Z,12.30
2018-11-28T05:04:19.374Z,12.40
2018-11-28T05:07:52.461Z,12.40
2018-11-28T05:10:27.831Z,12.40
2018-11-28T05:12:59.069Z,12.40
2018-11-28T05:15:31.362Z,12.40
2018-11-28T05:18:01.652Z,12.40
2018-11-28T05:20:33.923Z,12.50
2018-11-28T05:23:05.208Z,12.50
2018-11-28T05:25:36.240Z,12.40
2018-11-28T05:28:06.459Z,12.60
2018-11-28T05:30:36.598Z,12.60
2018-11-28T05:33:06.943Z,12.60
2018-11-28T05:35:38.687Z,12.70
2018-11-28T05:38:15.550Z,12.70
2018-11-28T05:40:46.375Z,12.70
2018-11-28T05:43:16.380Z,12.80
2018-11-28T05:45:46.312Z,12.80
2018-11-28T05:48:16.556Z,12.90
2018-11-28T05:50:46.530Z,12.90
2018-11-28T05:53:16.726Z,12.90
2018-11-28T05:55:46.894Z,13.00
2018-11-28T05:58:17.168Z,13.00
2018-11-28T06:00:47.382Z,13.00
2018-11-28T06:03:17.878Z,13.00
2018-11-28T06:05:47.938Z,13.00
2018-11-28T06:08:18.257Z,13.10
2018-11-28T06:10:48.411Z,13.10
2018-11-28T06:13:18.453Z,13.10
2018-11-28T06:15:48.952Z,13.10
2018-11-28T06:18:19.539Z,13.20
2018-11-28T06:20:50.041Z,13.20
2018-11-28T06:23:20.398Z,13.30
2018-11-28T06:25:50.490Z,13.30
2018-11-28T06:28:20.572Z,13.30
2018-11-28T06:30:50.608Z,13.40
2018-11-28T06:33:20.712Z,13.40
2018-11-28T06:35:50.933Z,13.40
2018-11-28T06:38:20.976Z,13.40
2018-11-28T06:40:51.271Z,13.40
2018-11-28T06:43:21.837Z,13.40
2018-11-28T06:45:52.369Z,13.50
2018-11-28T06:48:22.870Z,13.50
2018-11-28T06:50:53.355Z,13.50
2018-11-28T06:53:23.560Z,13.50
2018-11-28T06:55:53.973Z,13.60
2018-11-28T06:58:24.025Z,13.60
2018-11-28T07:00:54.298Z,13.60
2018-11-28T07:03:24.670Z,13.60
2018-11-28T07:05:54.941Z,13.60
2018-11-28T07:08:25.260Z,13.70
2018-11-28T07:10:55.462Z,13.70
2018-11-28T07:13:25.554Z,13.70
2018-11-28T07:15:55.721Z,13.80
2018-11-28T07:18:42.194Z,13.80
2018-11-28T07:21:14.258Z,13.80
2018-11-28T07:23:44.283Z,13.90
2018-11-28T07:26:14.302Z,13.90
2018-11-28T07:28:44.473Z,14.00
2018-11-28T07:31:15.019Z,14.00
2018-11-28T07:33:45.168Z,14.00
2018-11-28T07:36:15.300Z,14.10
2018-11-28T07:38:45.262Z,14.10
2018-11-28T07:41:15.286Z,14.20
2018-11-28T07:43:45.606Z,14.20
2018-11-28T07:46:16.227Z,14.20
2018-11-28T07:48:49.293Z,14.30
2018-11-28T07:51:20.841Z,14.30
2018-11-28T07:53:51.737Z,14.30
2018-11-28T07:56:21.655Z,14.40
2018-11-28T07:58:54.418Z,14.40
2018-11-28T08:01:24.483Z,14.50
2018-11-28T08:03:54.604Z,14.50
2018-11-28T08:06:24.618Z,14.50
2018-11-28T08:08:58.422Z,14.60
2018-11-28T08:11:28.575Z,14.60
2018-11-28T08:13:58.526Z,14.70
2018-11-28T08:16:28.584Z,14.70
2018-11-28T08:18:58.621Z,14.80
2018-11-28T08:21:30.813Z,14.80
2018-11-28T08:24:01.095Z,14.90
2018-11-28T08:26:31.470Z,14.90
2018-11-28T08:29:02.001Z,14.90
2018-11-28T08:31:32.192Z,14.90
2018-11-28T08:34:02.250Z,14.90
2018-11-28T08:36:33.033Z,15.00
2018-11-28T08:39:03.258Z,15.00
2018-11-28T08:41:33.513Z,15.00
2018-11-28T08:44:03.790Z,15.10
2018-11-28T08:46:33.917Z,15.10
2018-11-28T08:49:04.108Z,15.20
2018-11-28T08:51:34.190Z,15.20
2018-11-28T08:54:04.387Z,15.30
2018-11-28T08:56:34.459Z,15.30
2018-11-28T08:59:04.846Z,15.40
2018-11-28T09:01:35.013Z,15.40
2018-11-28T09:04:05.464Z,15.50
2018-11-28T09:06:35.673Z,15.50
2018-11-28T09:09:08.034Z,15.60
2018-11-28T09:11:38.758Z,15.60
2018-11-28T09:14:09.208Z,15.70
2018-11-28T09:16:39.417Z,15.70
2018-11-28T09:19:09.617Z,15.80
2018-11-28T09:21:40.014Z,15.80
2018-11-28T09:24:10.043Z,15.80
2018-11-28T09:26:43.001Z,15.80
2018-11-28T09:29:13.308Z,15.80
2018-11-28T09:31:43.468Z,15.80
2018-11-28T09:34:13.597Z,15.80
2018-11-28T09:36:43.657Z,15.80
2018-11-28T09:39:14.138Z,15.80
2018-11-28T09:41:45.047Z,15.80
2018-11-28T09:44:15.250Z,15.80
2018-11-28T09:46:45.354Z,15.90
2018-11-28T09:49:15.262Z,15.90
2018-11-28T09:51:45.260Z,15.90
2018-11-28T09:54:15.531Z,15.90
2018-11-28T09:56:46.535Z,15.90
2018-11-28T09:59:16.944Z,15.90
2018-11-28T10:01:46.990Z,15.90
2018-11-28T10:04:16.965Z,15.90
2018-11-28T10:06:47.146Z,15.90
2018-11-28T10:09:17.061Z,15.90
2018-11-28T10:11:47.103Z,15.90
2018-11-28T10:14:17.200Z,15.90
2018-11-28T10:16:48.070Z,15.90
2018-11-28T10:19:17.753Z,15.90
2018-11-28T10:21:47.784Z,15.90
2018-11-28T10:24:17.857Z,15.90
2018-11-28T10:26:47.946Z,15.90
2018-11-28T10:29:18.352Z,15.90
2018-11-28T10:31:49.637Z,15.90
2018-11-28T10:34:19.604Z,15.90
2018-11-28T10:36:49.590Z,16.00
2018-11-28T10:39:20.298Z,16.00
2018-11-28T10:41:50.241Z,16.00
2018-11-28T10:44:20.174Z,16.00
2018-11-28T10:46:50.360Z,16.00
2018-11-28T10:49:20.342Z,16.00
2018-11-28T10:51:50.823Z,16.00
2018-11-28T10:54:21.048Z,16.00
2018-11-28T10:56:51.366Z,16.00
2018-11-28T10:59:21.481Z,15.90
2018-11-28T11:01:52.503Z,16.00
2018-11-28T11:04:25.854Z,16.00
2018-11-28T11:07:00.836Z,16.00
2018-11-28T11:09:36.258Z,16.00
2018-11-28T11:12:12.004Z,16.00
2018-11-28T11:14:46.166Z,16.00
2018-11-28T11:17:17.102Z,16.00
2018-11-28T11:19:49.623Z,16.00
2018-11-28T11:22:22.568Z,16.10
2018-11-28T11:24:55.138Z,16.10
2018-11-28T11:27:26.943Z,16.20
2018-11-28T11:29:57.021Z,16.20
2018-11-28T11:32:27.043Z,16.30
2018-11-28T11:34:57.311Z,16.30
2018-11-28T11:37:27.420Z,16.30
2018-11-28T11:39:57.996Z,16.40
2018-11-28T11:42:28.131Z,16.40
2018-11-28T11:44:58.017Z,16.40
2018-11-28T11:47:28.406Z,16.40
2018-11-28T11:49:58.616Z,16.40
2018-11-28T11:52:28.824Z,16.50
2018-11-28T11:54:59.171Z,16.50
2018-11-28T11:57:29.274Z,16.50
2018-11-28T11:59:59.436Z,16.50
2018-11-28T12:02:29.750Z,16.50
2018-11-28T12:04:59.966Z,16.60
2018-11-28T12:07:30.292Z,16.60
2018-11-28T12:10:00.298Z,16.60
2018-11-28T12:12:30.293Z,16.70
2018-11-28T12:15:00.534Z,16.70
2018-11-28T12:17:30.635Z,16.80
2018-11-28T12:20:00.649Z,16.80
2018-11-28T12:22:30.928Z,16.90
2018-11-28T12:25:01.104Z,16.90
2018-11-28T12:27:31.183Z,16.90
2018-11-28T12:30:01.105Z,16.90
2018-11-28T12:32:30.859Z,16.90
2018-11-28T12:35:01.101Z,17.00
2018-11-28T12:37:31.305Z,17.00
2018-11-28T12:40:02.480Z,17.00
2018-11-28T12:42:32.826Z,17.00
2018-11-28T12:45:03.290Z,17.10
2018-11-28T12:47:34.268Z,17.10
2018-11-28T12:50:06.109Z,17.20
2018-11-28T12:52:36.895Z,17.20
2018-11-28T12:55:08.270Z,17.20
2018-11-28T12:57:38.518Z,17.10
2018-11-28T13:00:11.930Z,17.10
2018-11-28T13:02:42.188Z,17.10
2018-11-28T13:05:15.950Z,17.10
2018-11-28T13:07:45.866Z,17.10
2018-11-28T13:10:36.074Z,17.00
2018-11-28T13:13:08.519Z,17.00
2018-11-28T13:15:39.388Z,17.00
2018-11-28T13:18:10.746Z,16.90
2018-11-28T13:20:44.233Z,16.80
2018-11-28T13:23:15.296Z,16.80
2018-11-28T13:25:45.809Z,16.70
2018-11-28T13:28:16.030Z,16.60
2018-11-28T13:30:48.154Z,16.50
2018-11-28T13:33:17.300Z,16.50
2018-11-28T13:35:47.570Z,16.50
2018-11-28T13:38:17.996Z,16.40
2018-11-28T13:40:47.988Z,16.40
2018-11-28T13:43:18.018Z,16.40
2018-11-28T13:45:49.640Z,16.30
2018-11-28T13:48:19.956Z,16.30
2018-11-28T13:50:50.223Z,16.20
2018-11-28T13:53:20.530Z,16.20
2018-11-28T13:56:57.303Z,16.20
2018-11-28T13:58:27.274Z,16.10
2018-11-28T14:00:57.844Z,16.10
2018-11-28T14:03:28.211Z,16.10
2018-11-28T14:05:58.126Z,16.10
2018-11-28T14:08:29.251Z,16.10
2018-11-28T14:10:59.198Z,16.20
2018-11-28T14:13:29.205Z,16.20
2018-11-28T14:15:59.390Z,16.20
2018-11-28T14:18:29.843Z,16.20
2018-11-28T14:21:01.658Z,16.20
2018-11-28T14:23:31.921Z,16.20
2018-11-28T14:26:01.897Z,16.20
2018-11-28T14:28:32.037Z,16.20
2018-11-28T14:31:02.464Z,16.20
2018-11-28T14:33:33.235Z,16.20
2018-11-28T14:36:03.247Z,16.20
2018-11-28T14:38:33.307Z,16.20
2018-11-28T14:41:03.567Z,16.20
2018-11-28T14:43:34.738Z,16.20
2018-11-28T14:46:05.226Z,16.20
2018-11-28T14:48:36.261Z,16.20
2018-11-28T14:51:06.586Z,16.20
2018-11-28T14:53:36.936Z,16.20
2018-11-28T14:56:07.179Z,16.20
2018-11-28T14:58:38.071Z,16.10
2018-11-28T15:01:10.982Z,16.10
2018-11-28T15:03:42.199Z,16.20
2018-11-28T15:06:28.343Z,16.20
2018-11-28T15:09:06.579Z,16.20
2018-11-28T15:11:37.735Z,16.20
2018-11-28T15:14:08.067Z,16.20
2018-11-28T15:16:38.275Z,16.20
2018-11-28T15:19:09.242Z,16.20
2018-11-28T15:21:39.287Z,16.20
2018-11-28T15:24:09.573Z,16.10
2018-11-28T15:26:39.713Z,16.20
2018-11-28T15:29:13.732Z,16.10
2018-11-28T15:31:44.262Z,16.10
2018-11-28T15:34:15.331Z,16.10
2018-11-28T15:36:45.465Z,16.10
2018-11-28T15:39:15.328Z,16.10
2018-11-28T15:41:45.737Z,16.10
2018-11-28T15:44:16.349Z,16.20
2018-11-28T15:46:46.611Z,16.20
2018-11-28T15:49:16.652Z,16.20
2018-11-28T15:51:46.953Z,16.10
2018-11-28T15:54:17.249Z,16.10
2018-11-28T15:56:47.404Z,16.10
2018-11-28T15:59:17.412Z,16.00
2018-11-28T16:01:47.425Z,16.00
2018-11-28T16:04:18.343Z,16.00
2018-11-28T16:06:49.728Z,16.00
2018-11-28T16:09:25.976Z,16.00
2018-11-28T16:11:56.594Z,16.10
2018-11-28T16:14:26.685Z,16.10
2018-11-28T16:16:56.961Z,16.10
2018-11-28T16:19:27.232Z,16.10
2018-11-28T16:22:04.047Z,16.20
2018-11-28T16:24:34.979Z,16.20
2018-11-28T16:27:05.685Z,16.20
2018-11-28T16:29:42.514Z,16.10
2018-11-28T16:32:12.598Z,16.10
2018-11-28T16:34:42.796Z,16.20
2018-11-28T16:37:13.351Z,16.20
2018-11-28T16:39:43.562Z,16.20
2018-11-28T16:42:13.749Z,16.20
2018-11-28T16:44:44.211Z,16.20
2018-11-28T16:47:14.963Z,16.20
2018-11-28T16:49:45.084Z,16.20
2018-11-28T16:52:14.882Z,16.20
2018-11-28T16:54:45.994Z,16.10
2018-11-28T16:57:16.458Z,16.10
2018-11-28T16:59:46.398Z,16.10
2018-11-28T17:02:16.490Z,16.00
2018-11-28T17:04:46.748Z,16.00
2018-11-28T17:07:16.853Z,15.90
2018-11-28T17:09:47.159Z,15.90
2018-11-28T17:12:17.571Z,15.80
2018-11-28T17:14:47.934Z,15.80
2018-11-28T17:17:19.350Z,15.80
2018-11-28T17:19:49.440Z,15.70
2018-11-28T17:22:19.428Z,15.70
2018-11-28T17:24:50.538Z,15.60
2018-11-28T17:27:20.881Z,15.60
2018-11-28T17:29:50.876Z,15.50
2018-11-28T17:32:20.811Z,15.50
2018-11-28T17:34:50.894Z,15.50
2018-11-28T17:37:21.138Z,15.40
2018-11-28T17:39:51.218Z,15.40
2018-11-28T17:42:21.300Z,15.40
2018-11-28T17:44:51.352Z,15.30
2018-11-28T17:47:21.576Z,15.30
2018-11-28T17:49:53.012Z,15.20
2018-11-28T17:52:23.397Z,15.20
2018-11-28T17:54:53.918Z,15.10
2018-11-28T17:57:24.090Z,15.10
2018-11-28T17:59:54.281Z,15.10
2018-11-28T18:02:24.302Z,15.00
2018-11-28T18:04:54.471Z,15.00
2018-11-28T18:07:25.299Z,15.00
2018-11-28T18:09:56.503Z,15.10
2018-11-28T18:12:33.968Z,15.10
2018-11-28T18:15:03.895Z,15.10
2018-11-28T18:17:34.203Z,15.10
2018-11-28T18:20:04.835Z,15.20
2018-11-28T18:22:35.277Z,15.10
2018-11-28T18:25:06.109Z,15.10
2018-11-28T18:27:36.157Z,15.10
2018-11-28T18:30:09.048Z,15.10
2018-11-28T18:32:39.684Z,15.10
2018-11-28T18:35:11.439Z,15.10
2018-11-28T18:37:41.968Z,15.10
2018-11-28T18:40:13.344Z,15.00
2018-11-28T18:42:43.926Z,15.00
2018-11-28T18:45:18.360Z,15.00
2018-11-28T18:47:48.558Z,15.00
2018-11-28T18:50:20.073Z,14.90
2018-11-28T18:52:52.446Z,14.90
2018-11-28T18:55:24.372Z,14.90
2018-11-28T18:57:58.229Z,14.90
2018-11-28T19:00:30.791Z,14.90
2018-11-28T19:03:02.835Z,14.80
2018-11-28T19:05:33.618Z,14.80
2018-11-28T19:08:04.287Z,14.80
2018-11-28T19:10:35.059Z,14.80
2018-11-28T19:13:06.387Z,14.80
2018-11-28T19:15:36.721Z,14.80
2018-11-28T19:18:07.922Z,14.80
2018-11-28T19:20:37.949Z,14.80
2018-11-28T19:23:08.558Z,14.80
2018-11-28T19:25:38.863Z,14.90
2018-11-28T19:28:09.038Z,14.90
2018-11-28T19:30:40.826Z,14.90
2018-11-28T19:33:13.382Z,15.00
2018-11-28T19:35:43.959Z,15.00
2018-11-28T19:38:15.596Z,15.00
2018-11-28T19:40:56.543Z,15.00
2018-11-28T19:43:26.485Z,15.00
2018-11-28T19:45:57.212Z,15.00
2018-11-28T19:48:27.279Z,15.00
2018-11-28T19:50:57.604Z,15.00
2018-11-28T19:53:28.943Z,15.10
2018-11-28T19:55:59.141Z,15.10
2018-11-28T19:58:29.069Z,15.10
2018-11-28T20:00:59.555Z,15.10
2018-11-28T20:03:29.509Z,15.10
2018-11-28T20:06:02.382Z,15.10
2018-11-28T20:08:32.593Z,15.00
2018-11-28T20:11:09.232Z,15.00
2018-11-28T20:13:39.454Z,14.90
2018-11-28T20:16:09.722Z,14.90
2018-11-28T20:18:39.882Z,14.90
2018-11-28T20:21:10.115Z,15.00
2018-11-28T20:23:40.645Z,15.00
2018-11-28T20:26:10.737Z,15.10
2018-11-28T20:28:41.580Z,15.10
2018-11-28T20:31:11.640Z,15.20
2018-11-28T20:33:41.855Z,15.20
2018-11-28T20:36:11.872Z,15.30
2018-11-28T20:38:42.414Z,15.30
2018-11-28T20:41:12.567Z,15.40
2018-11-28T20:43:43.019Z,15.40
2018-11-28T20:46:13.544Z,15.40
2018-11-28T20:48:44.693Z,15.40
2018-11-28T20:51:15.399Z,15.40
2018-11-28T20:53:45.613Z,15.40
2018-11-28T20:56:15.910Z,15.40
2018-11-28T20:58:46.162Z,15.30
2018-11-28T21:01:16.336Z,15.30
2018-11-28T21:03:46.371Z,15.30
2018-11-28T21:06:16.569Z,15.20
2018-11-28T21:08:46.641Z,15.10
2018-11-28T21:11:16.882Z,15.10
2018-11-28T21:13:47.310Z,15.00
2018-11-28T21:16:17.412Z,14.80
2018-11-28T21:18:47.716Z,14.80
2018-11-28T21:21:18.088Z,14.80
2018-11-28T21:23:49.753Z,14.70
2018-11-28T21:26:19.774Z,14.70
2018-11-28T21:28:49.959Z,14.50
2018-11-28T21:31:20.049Z,14.50
2018-11-28T21:33:50.167Z,14.50
2018-11-28T21:36:20.143Z,14.40
2018-11-28T21:38:56.838Z,14.40
2018-11-28T21:41:27.045Z,14.30
2018-11-28T21:43:57.584Z,14.30
2018-11-28T21:46:28.110Z,14.20
2018-11-28T21:48:58.323Z,14.20
2018-11-28T21:51:28.682Z,14.10
2018-11-28T21:53:58.598Z,14.10
2018-11-28T21:56:28.621Z,14.00
2018-11-28T21:58:59.041Z,13.90
2018-11-28T22:01:32.584Z,13.90
2018-11-28T22:04:02.795Z,13.90
2018-11-28T22:06:32.782Z,13.80
2018-11-28T22:09:02.882Z,13.80
2018-11-28T22:11:32.982Z,13.70
2018-11-28T22:14:03.276Z,13.70
2018-11-28T22:16:33.603Z,13.70
2018-11-28T22:19:03.963Z,13.60
2018-11-28T22:21:34.433Z,13.60
2018-11-28T22:24:04.685Z,13.60
2018-11-28T22:26:34.741Z,13.60
2018-11-28T22:29:05.048Z,13.50
2018-11-28T22:31:35.164Z,13.50
2018-11-28T22:34:06.056Z,13.50
2018-11-28T22:36:35.830Z,13.50
2018-11-28T22:39:08.612Z,13.50
2018-11-28T22:41:38.482Z,13.40
2018-11-28T22:44:08.733Z,13.40
2018-11-28T22:46:38.928Z,13.40
2018-11-28T22:49:09.129Z,13.40
2018-11-28T22:51:40.272Z,13.40
2018-11-28T22:54:10.516Z,13.30
2018-11-28T22:56:40.622Z,13.30
2018-11-28T22:59:10.630Z,13.30
2018-11-28T23:03:56.013Z,13.30
2018-11-28T23:06:26.436Z,13.10
2018-11-28T23:08:56.743Z,13.10
2018-11-28T23:11:27.814Z,13.00
2018-11-28T23:13:58.196Z,13.00
2018-11-28T23:16:28.925Z,13.00
2018-11-28T23:18:59.472Z,13.00
2018-11-28T23:21:30.237Z,13.00
2018-11-28T23:24:00.223Z,13.00
2018-11-28T23:26:30.209Z,13.00
2018-11-28T23:29:00.563Z,13.00
2018-11-28T23:31:31.752Z,13.00
2018-11-28T23:34:01.709Z,12.90
2018-11-28T23:36:31.700Z,12.90
2018-11-28T23:39:01.831Z,12.90
2018-11-28T23:41:35.444Z,12.90
2018-11-28T23:44:05.726Z,12.90
2018-11-28T23:46:36.824Z,12.90
2018-11-28T23:49:07.085Z,12.90
2018-11-28T23:51:37.422Z,12.90
2018-11-28T23:54:08.773Z,12.90
2018-11-28T23:56:39.018Z,12.90
2018-11-28T23:59:09.742Z,12.90
